Terminal Aerodrome Forecast
Issued by NWS Cleveland, OH

Home | Current Version | Previous Version | Graphics & Text | Print | Product List | Glossary On
Versions: 1 2 3 4 5 6 7 8 9 10 11 12 13 14 15
030
FTUS41 KCLE 242340
TAFERI
TAF
KERI 242340Z 2500/2524 26005KT P6SM SCT250
     FM250130 20008KT P6SM SKC
     FM251600 27008KT P6SM SCT060=

USA.gov is the U.S. government's official web portal to all federal, state and local government web resources and services.